メインページ
METAR-TAF:

METAR-TAF

空港 :

トゥーレ, グリーンランド

チューレ空軍基地

緯度: 76-32N, 経度: 068-42W, 海抜: 77m

現時点の気象観測

当レポートは38分前の15:58(UTC)に作成
北/北東の風 9kt
気温 -4°C
湿度 46%
気圧 1028 hPa
視程10km以上
晴天

METAR: BGTL 221558Z AUTO 03009KT 9999 CLR M04/M14 A3035 RMK AO2 PK WND 14026/31 SLP266 T10421145

時間: 12:36 (16:36 UTC)

予報

当レポートは33分前の16:03(UTC)に作成
予報は22日の 16時(UTC)から 23日の 16時(UTC)まで有効
の風 12kt、東/北東から南東の間で変化する
視程10km以上
高度20000ftの雲はほとんどない
22日の 16時(UTC)から 22日の 24時(UTC)まで一時的に
東/南東の風 20kt、最大32ktの突風を伴う
23日の 04時(UTC)から 23日の 05時(UTC)まで徐々に
の風 10kt、最大15ktの突風を伴う、から南/南東の間で変化する
視程10km以上
晴天

TAF: BGTL 221603Z 2216/2316 08012KT 9999 FEW200 510006 QNH3027INS WND 070V140 TEMPO 2216/2224 12020G32KT BECMG 2304/2305 10010G15KT 9999 SKC QNH3020INS WND 090V160 TXM03/2216Z TNM20/2310Z

4,000以上の空港の気象観測と天気予報(METAR報とTAF報)

利用可能な観測所は地図上に黄色い丸と赤い丸で示す。

丸の上にカーソルを重ねると観測所名を参照できる。

次にクリックすると気象観測と天気予報を参照できる。

マップの切り替え:黒色「×」印の緑ボタンをクリックして拡大、「-」印の緑ボタンをクリックして縮小、緑色の三角印をクリックして隣りの地図に切り替え


METAR-TAF: